Impacts TAF Board
For situational awareness. Not to be used for flight planning purposes.
IDs:

KPUW - Pullman/Moscow Rgnl, WA, US

Issued at 1735 UTC 06 Dec 2019
Updated at 2141 UTC 06 Dec 2019
Potential Impact None Slight Moderate High
Time2053Z 06/22Z 06/23Z 07/00Z 07/01Z 07/02Z 07/03Z 07/04Z 07/05Z 07/06Z 07/07Z 07/08Z 07/09Z 07/10Z>>
Type OBS PRVL PRVL PRVL PRVL PRVL PRVL PRVL PRVL PRVL PRVL PRVL PRVL PRVL
VIS 10 >6 >6 >6 >6 >6 >6 >6 >6 >6 >6 >6 >6 >6
CIG -- 250 250 250 250 250 250 250 250 100 100 100 100 100
Cover CLR BKN BKN BKN BKN BKN BKN BKN BKN OVC OVC OVC OVC OVC
FltCat VFR VFR VFR VFR VFR VFR VFR VFR VFR VFR VFR VFR VFR VFR
WX -- -- -- -- -- -- -- -- -- -- -- -- -- --
WDir 110 120 120 120 120 120 120 120 120 130 130 130 130 130
WSpd 10 11 11 11 11 11 11 11 11 7 7 7 7 7
WGst -- -- -- -- -- -- -- -- -- -- -- -- -- --
Raw TAF
KPUW 061735Z 0618/0718 12011KT P6SM BKN250
  FM070600 13007KT P6SM OVC100
  FM071100 12006KT P6SM -RA OVC045


Raw METAR
KPUW 062053Z AUTO 11010KT 10SM CLR 07/01 A3003 RMK AO2 SLP182 T00670006 58018
KPUW 061953Z AUTO 12011KT 10SM CLR 06/00 A3005 RMK AO2 SLP191 T00610000
KPUW 061853Z AUTO 09009KT 10SM CLR 06/00 A3008 RMK AO2 SLP202 T00560000

METAR Board
Radar Display
Forecast Discussion
For situational awareness. Not to be used for flight planning purposes.